Aérodrome :
LOGIN :

S'inscrire | Disclaimer

   EN    FR    IT 

 










Légende :    VFR   VFR Marginal   IFR   IFR Intensif   IFR Très Intensif
Visi : 
Plafond : 
>= 8 km
>= 3000ft
5 à 8 km
1000 à 3000 ft
1500m à 5 km
500 à 1000 ft
800 à 1500m
200 à 500 ft
< 800m
< 200 ft
Symboles :   Orages  Brouillard  Fortes neiges  Fortes précipitations  Vent > 20 kt
SIGMETs :   Divers  Orages  Givrage  Turbulence  Onde Orograph.  Cendres Volcan.







- Altitude de l'aérodrome : 408 ft
- Code IATA : FKB


EDSB - Karlsruhe Baden Baden

DERNIER METAR :
  • 140750Z 23013KT 9999 FEW015 SCT038 05/00 Q1003

METARs EXPIRÉS :
  • 140720Z 24013KT 9999 FEW038 05/00 Q1002
  • 140650Z 24013G24KT 9999 FEW036 05/00 Q1002
  • 140620Z 25011G22KT 9999 FEW033 05/01 Q1001
  • 140550Z 26013G24KT 9999 VCSH SCT033 05/01 Q1001
  • 140520Z 25015KT 210V280 9999 FEW022 05/01 Q1000

TAF TAF EDSB
Valide du 14 à 06h jusqu'au 15 à 06h UTC


140500Z 1406/1506 22015G25KT 9999 SCT030
TEMPO 1411/1417 25020G35KT SHRA BKN025CB
BECMG 1415/1417 20012KT
TEMPO 1417/1501 24015G25KT SHRA BKN025TCU
PROB30
TEMPO 1417/1501 25020G35KT 4000 TSRA BKN012 BKN020CB
Pas de NOTAMs connus pour ce terrain.



MET'MAP, la Météo Aéronautique d'un coup d'oeil ! - Copyright ORBIFLY Décembre 2007 - Disclaimer

ORBIFLY MET'MAP TEAM :

Programmation & Développement : Alexandra Zaïnal
Conception & Développement : Baudouin d'Aumeries
Co-Programmation & Développement : Marc-Olivier Méhu
Soutien technique & logistique : Manuel Goepfert

Contact : metmap@orbifly.com




SOURCES & CREDITS :

   NOAA